Time,TemperatureF,DewpointF,PressureIn,WindDirection,WindDirectionDegrees,WindSpeedMPH,WindSpeedGustMPH,Humidity,HourlyPrecipIn,Conditions,Clouds,dailyrainin,SoftwareType,DateUTC
2013-05-08 00:00:00,55.4,48.3,30.37,ENE,68,0.0,0.0,77,0.00,,---,0.00,VWS V14.01,2013-05-08 05:00:00,
2013-05-08 00:10:00,55.3,48.6,30.37,ENE,68,0.0,2.0,78,0.00,,---,0.00,VWS V14.01,2013-05-08 05:10:00,
2013-05-08 00:20:00,55.3,48.9,30.37,ENE,68,0.0,1.0,79,0.00,,---,0.00,VWS V14.01,2013-05-08 05:20:00,
2013-05-08 00:30:00,55.1,49.0,30.37,ENE,68,0.0,0.0,80,0.00,,---,0.00,VWS V14.01,2013-05-08 05:30:00,
2013-05-08 00:40:00,55.3,49.6,30.37,ENE,68,0.0,0.0,81,0.00,,---,0.00,VWS V14.01,2013-05-08 05:40:00,
2013-05-08 00:50:00,55.1,49.4,30.37,ENE,68,0.0,0.0,81,0.00,,---,0.00,VWS V14.01,2013-05-08 05:50:00,
2013-05-08 01:00:00,55.0,49.3,30.36,ENE,68,0.0,0.0,81,0.00,,---,0.00,VWS V14.01,2013-05-08 06:00:00,
2013-05-08 01:10:00,54.8,49.1,30.36,ENE,68,0.0,0.0,81,0.00,,---,0.00,VWS V14.01,2013-05-08 06:10:00,
2013-05-08 01:20:00,54.7,49.0,30.36,ENE,68,0.0,0.0,81,0.00,,---,0.00,VWS V14.01,2013-05-08 06:20:00,
2013-05-08 01:30:00,54.4,48.7,30.36,ENE,68,0.0,0.0,81,0.00,,---,0.00,VWS V14.01,2013-05-08 06:30:00,
2013-05-08 01:40:00,54.1,48.7,30.36,ENE,68,0.0,0.0,82,0.00,,---,0.00,VWS V14.01,2013-05-08 06:40:00,
2013-05-08 01:50:00,53.9,48.5,30.36,ENE,68,0.0,0.0,82,0.00,,---,0.00,VWS V14.01,2013-05-08 06:50:00,
2013-05-08 02:00:00,53.9,48.9,30.36,ENE,68,0.0,1.0,83,0.00,,---,0.00,VWS V14.01,2013-05-08 07:00:00,
2013-05-08 02:10:00,54.1,49.4,30.36,ENE,68,0.0,0.0,84,0.00,,---,0.00,VWS V14.01,2013-05-08 07:10:00,
2013-05-08 02:20:00,53.8,49.1,30.35,ENE,68,0.0,0.0,84,0.00,,---,0.00,VWS V14.01,2013-05-08 07:20:00,
2013-05-08 02:30:00,53.6,48.9,30.35,ENE,68,0.0,0.0,84,0.00,,---,0.00,VWS V14.01,2013-05-08 07:30:00,
2013-05-08 02:40:00,53.3,48.6,30.35,ENE,68,0.0,1.0,84,0.00,,---,0.00,VWS V14.01,2013-05-08 07:40:00,
2013-05-08 02:50:00,53.1,48.4,30.35,ENE,68,0.0,0.0,84,0.00,,---,0.00,VWS V14.01,2013-05-08 07:50:00,
2013-05-08 03:00:00,52.9,48.2,30.35,ENE,68,0.0,0.0,84,0.00,,---,0.00,VWS V14.01,2013-05-08 08:00:00,
2013-05-08 03:10:00,52.8,48.1,30.35,ENE,68,0.0,0.0,84,0.00,,---,0.00,VWS V14.01,2013-05-08 08:10:00,
2013-05-08 03:20:00,52.8,48.1,30.35,ENE,68,0.0,0.0,84,0.00,,---,0.00,VWS V14.01,2013-05-08 08:20:00,
2013-05-08 03:30:00,52.8,48.4,30.35,ENE,68,0.0,0.0,85,0.00,,---,0.00,VWS V14.01,2013-05-08 08:30:00,
2013-05-08 03:40:00,52.8,48.4,30.35,ENE,68,0.0,1.0,85,0.00,,---,0.00,VWS V14.01,2013-05-08 08:40:00,
2013-05-08 03:50:00,52.8,48.4,30.35,ENE,68,0.0,0.0,85,0.00,,---,0.00,VWS V14.01,2013-05-08 08:50:00,
2013-05-08 04:00:00,52.6,48.5,30.35,ENE,68,1.0,4.0,86,0.00,,---,0.00,VWS V14.01,2013-05-08 09:00:00,
2013-05-08 04:10:00,52.8,48.7,30.35,ENE,68,1.0,2.0,86,0.00,,---,0.00,VWS V14.01,2013-05-08 09:10:00,
2013-05-08 04:20:00,52.8,48.7,30.34,ENE,68,0.0,2.0,86,0.00,,---,0.00,VWS V14.01,2013-05-08 09:20:00,
2013-05-08 04:30:00,52.8,48.7,30.33,ENE,68,1.0,3.0,86,0.00,,---,0.00,VWS V14.01,2013-05-08 09:30:00,
2013-05-08 04:40:00,52.6,48.5,30.33,ENE,68,1.0,3.0,86,0.00,,---,0.00,VWS V14.01,2013-05-08 09:40:00,
2013-05-08 04:50:00,52.5,48.4,30.33,ENE,68,1.0,3.0,86,0.00,,---,0.00,VWS V14.01,2013-05-08 09:50:00,
2013-05-08 05:00:00,52.5,48.4,30.33,ENE,68,1.0,3.0,86,0.00,,---,0.00,VWS V14.01,2013-05-08 10:00:00,
2013-05-08 05:10:00,52.5,48.8,30.33,ENE,68,1.0,3.0,87,0.00,,---,0.00,VWS V14.01,2013-05-08 10:10:00,
2013-05-08 05:20:00,52.5,48.8,30.33,ENE,68,1.0,3.0,87,0.00,,---,0.00,VWS V14.01,2013-05-08 10:20:00,
2013-05-08 05:30:00,52.5,48.8,30.33,ENE,68,0.0,3.0,87,0.00,,---,0.00,VWS V14.01,2013-05-08 10:30:00,
2013-05-08 05:40:00,52.3,48.5,30.33,ENE,68,1.0,2.0,87,0.00,,---,0.00,VWS V14.01,2013-05-08 10:40:00,
2013-05-08 05:50:00,52.0,48.3,30.33,ENE,68,1.0,2.0,87,0.00,,---,0.00,VWS V14.01,2013-05-08 10:50:00,
2013-05-08 06:00:00,51.9,48.2,30.34,ENE,68,0.0,2.0,87,0.00,,---,0.00,VWS V14.01,2013-05-08 11:00:00,
2013-05-08 06:10:00,51.7,48.0,30.34,ENE,68,0.0,2.0,87,0.00,,---,0.00,VWS V14.01,2013-05-08 11:10:00,
2013-05-08 06:20:00,51.6,47.9,30.34,ENE,68,1.0,3.0,87,0.00,,---,0.00,VWS V14.01,2013-05-08 11:20:00,
2013-05-08 06:30:00,51.4,47.7,30.34,ENE,68,1.0,3.0,87,0.00,,---,0.00,VWS V14.01,2013-05-08 11:30:00,
2013-05-08 06:40:00,51.3,47.6,30.34,ENE,68,1.0,2.0,87,0.00,,---,0.00,VWS V14.01,2013-05-08 11:40:00,
2013-05-08 06:50:00,51.6,47.9,30.35,ENE,68,1.0,3.0,87,0.00,,---,0.00,VWS V14.01,2013-05-08 11:50:00,
2013-05-08 07:00:00,51.7,48.0,30.35,ENE,68,0.0,2.0,87,0.00,,---,0.00,VWS V14.01,2013-05-08 12:00:00,
2013-05-08 07:10:00,51.7,48.3,30.35,ENE,68,0.0,0.0,88,0.00,,---,0.00,VWS V14.01,2013-05-08 12:10:00,
2013-05-08 07:20:00,51.9,48.5,30.37,ENE,68,0.0,0.0,88,0.00,,---,0.00,VWS V14.01,2013-05-08 12:20:00,
2013-05-08 07:30:00,52.3,49.2,30.38,ENE,68,0.0,0.0,89,0.00,,---,0.00,VWS V14.01,2013-05-08 12:30:00,
2013-05-08 07:40:00,53.1,50.0,30.38,ENE,68,0.0,2.0,89,0.00,,---,0.00,VWS V14.01,2013-05-08 12:40:00,
2013-05-08 07:50:00,54.2,51.3,30.38,ENE,68,2.0,3.0,90,0.00,,---,0.00,VWS V14.01,2013-05-08 12:50:00,
2013-05-08 08:00:00,55.3,52.4,30.37,ENE,68,1.0,3.0,90,0.00,,---,0.00,VWS V14.01,2013-05-08 13:00:00,
2013-05-08 08:10:00,56.5,53.9,30.37,ENE,68,2.0,5.0,91,0.00,,---,0.00,VWS V14.01,2013-05-08 13:10:00,
2013-05-08 08:20:00,57.8,54.9,30.38,ENE,68,3.0,5.0,90,0.00,,---,0.00,VWS V14.01,2013-05-08 13:20:00,
2013-05-08 08:30:00,59.0,56.1,30.37,ENE,68,3.0,5.0,90,0.00,,---,0.00,VWS V14.01,2013-05-08 13:30:00,
2013-05-08 08:40:00,60.2,57.3,30.37,East,90,2.0,4.0,90,0.00,,---,0.00,VWS V14.01,2013-05-08 13:40:00,
2013-05-08 08:50:00,61.6,58.0,30.36,SSE,158,3.0,7.0,88,0.00,,---,0.00,VWS V14.01,2013-05-08 13:50:00,
2013-05-08 09:00:00,62.9,58.0,30.37,South,180,2.0,6.0,84,0.00,,---,0.00,VWS V14.01,2013-05-08 14:00:00,
2013-05-08 09:10:00,64.7,56.2,30.37,South,180,3.0,10.0,74,0.00,,---,0.00,VWS V14.01,2013-05-08 14:10:00,
2013-05-08 09:20:00,66.8,55.1,30.38,South,180,4.0,9.0,66,0.00,,---,0.00,VWS V14.01,2013-05-08 14:20:00,
2013-05-08 09:30:00,68.6,54.2,30.38,ESE,112,1.0,6.0,60,0.00,,---,0.00,VWS V14.01,2013-05-08 14:30:00,
2013-05-08 09:40:00,71.1,55.1,30.38,ESE,112,1.0,3.0,57,0.00,,---,0.00,VWS V14.01,2013-05-08 14:40:00,
2013-05-08 09:50:00,71.8,54.8,30.39,ESE,112,2.0,4.0,55,0.00,,---,0.00,VWS V14.01,2013-05-08 14:50:00,
2013-05-08 10:00:00,72.0,54.5,30.39,ESE,112,1.0,3.0,54,0.00,,---,0.00,VWS V14.01,2013-05-08 15:00:00,
2013-05-08 10:10:00,72.7,54.1,30.39,ESE,112,1.0,3.0,52,0.00,,---,0.00,VWS V14.01,2013-05-08 15:10:00,
2013-05-08 10:20:00,75.4,58.1,30.39,ESE,112,2.0,5.0,55,0.00,,---,0.00,VWS V14.01,2013-05-08 15:20:00,
2013-05-08 10:30:00,75.3,58.0,30.39,ESE,112,2.0,5.0,55,0.00,,---,0.00,VWS V14.01,2013-05-08 15:30:00,
2013-05-08 10:40:00,73.9,53.0,30.39,East,90,1.0,6.0,48,0.00,,---,0.00,VWS V14.01,2013-05-08 15:40:00,
2013-05-08 10:50:00,74.6,53.6,30.40,WNW,292,4.0,9.0,48,0.00,,---,0.00,VWS V14.01,2013-05-08 15:50:00,
2013-05-08 11:00:00,74.6,53.1,30.40,NW,315,4.0,9.0,47,0.00,,---,0.00,VWS V14.01,2013-05-08 16:00:00,
2013-05-08 11:10:00,76.5,53.0,30.40,SW,225,4.0,11.0,44,0.00,,---,0.00,VWS V14.01,2013-05-08 16:10:00,
2013-05-08 11:20:00,75.8,51.7,30.40,WSW,248,7.0,12.0,43,0.00,,---,0.00,VWS V14.01,2013-05-08 16:20:00,
2013-05-08 11:30:00,75.6,53.4,30.40,WSW,248,5.0,11.0,46,0.00,,---,0.00,VWS V14.01,2013-05-08 16:30:00,
2013-05-08 11:40:00,75.6,52.8,30.40,WSW,248,3.0,9.0,45,0.00,,---,0.00,VWS V14.01,2013-05-08 16:40:00,
2013-05-08 11:50:00,77.0,53.4,30.39,SSW,202,4.0,11.0,44,0.00,,---,0.00,VWS V14.01,2013-05-08 16:50:00,
2013-05-08 12:00:00,77.7,54.7,30.39,SSW,202,4.0,11.0,45,0.00,,---,0.00,VWS V14.01,2013-05-08 17:00:00,
2013-05-08 12:10:00,77.4,52.5,30.39,WSW,248,6.0,12.0,42,0.00,,---,0.00,VWS V14.01,2013-05-08 17:10:00,
2013-05-08 12:20:00,76.3,54.0,30.39,SW,225,3.0,10.0,46,0.00,,---,0.00,VWS V14.01,2013-05-08 17:20:00,
2013-05-08 12:30:00,76.0,53.2,30.39,NW,315,3.0,7.0,45,0.00,,---,0.00,VWS V14.01,2013-05-08 17:30:00,
2013-05-08 12:40:00,78.1,55.0,30.39,SW,225,6.0,10.0,45,0.00,,---,0.00,VWS V14.01,2013-05-08 17:40:00,
2013-05-08 12:50:00,77.2,53.6,30.39,WSW,248,4.0,9.0,44,0.00,,---,0.00,VWS V14.01,2013-05-08 17:50:00,
2013-05-08 13:00:00,76.7,53.2,30.39,SW,225,3.0,7.0,44,0.00,,---,0.00,VWS V14.01,2013-05-08 18:00:00,
2013-05-08 13:10:00,75.8,53.0,30.39,WNW,292,2.0,7.0,45,0.00,,---,0.00,VWS V14.01,2013-05-08 18:10:00,
2013-05-08 13:20:00,75.8,53.0,30.39,WNW,292,3.0,7.0,45,0.00,,---,0.00,VWS V14.01,2013-05-08 18:20:00,
2013-05-08 13:30:00,76.8,53.9,30.39,WNW,292,2.0,5.0,45,0.00,,---,0.00,VWS V14.01,2013-05-08 18:30:00,
2013-05-08 13:40:00,78.3,55.2,30.39,WNW,292,3.0,7.0,45,0.00,,---,0.00,VWS V14.01,2013-05-08 18:40:00,
2013-05-08 13:50:00,78.8,53.1,30.38,West,270,2.0,7.0,41,0.00,,---,0.00,VWS V14.01,2013-05-08 18:50:00,
2013-05-08 14:00:00,78.6,54.9,30.38,West,270,2.0,11.0,44,0.00,,---,0.00,VWS V14.01,2013-05-08 19:00:00,
2013-05-08 14:10:00,78.1,54.4,30.38,West,270,2.0,9.0,44,0.00,,---,0.00,VWS V14.01,2013-05-08 19:10:00,
2013-05-08 14:20:00,80.3,55.8,30.37,SSE,158,3.0,10.0,43,0.00,,---,0.00,VWS V14.01,2013-05-08 19:20:00,
2013-05-08 14:30:00,80.1,55.6,30.36,SSE,158,2.0,10.0,43,0.00,,---,0.00,VWS V14.01,2013-05-08 19:30:00,
2013-05-08 14:40:00,79.9,54.8,30.36,SSW,202,5.0,12.0,42,0.00,,---,0.00,VWS V14.01,2013-05-08 19:40:00,
2013-05-08 14:50:00,79.6,54.5,30.34,SSE,158,5.0,10.0,42,0.00,,---,0.00,VWS V14.01,2013-05-08 19:50:00,
2013-05-08 15:00:00,79.0,55.9,30.33,South,180,6.0,13.0,45,0.00,,---,0.00,VWS V14.01,2013-05-08 20:00:00,
2013-05-08 15:10:00,80.5,55.3,30.33,South,180,7.0,14.0,42,0.00,,---,0.00,VWS V14.01,2013-05-08 20:10:00,
2013-05-08 15:20:00,80.7,54.8,30.33,SSW,202,8.0,14.0,41,0.00,,---,0.00,VWS V14.01,2013-05-08 20:20:00,
2013-05-08 15:30:00,81.1,56.5,30.32,South,180,7.0,13.0,43,0.00,,---,0.00,VWS V14.01,2013-05-08 20:30:00,
2013-05-08 15:40:00,81.8,55.1,30.32,South,180,9.0,15.0,40,0.00,,---,0.00,VWS V14.01,2013-05-08 20:40:00,
2013-05-08 15:50:00,81.6,55.0,30.32,South,180,7.0,16.0,40,0.00,,---,0.00,VWS V14.01,2013-05-08 20:50:00,
2013-05-08 16:00:00,81.4,54.8,30.31,South,180,9.0,17.0,40,0.00,,---,0.00,VWS V14.01,2013-05-08 21:00:00,
2013-05-08 16:10:00,81.6,54.3,30.31,South,180,8.0,16.0,39,0.00,,---,0.00,VWS V14.01,2013-05-08 21:10:00,
2013-05-08 16:20:00,81.2,53.9,30.30,South,180,9.0,18.0,39,0.00,,---,0.00,VWS V14.01,2013-05-08 21:20:00,
2013-05-08 16:30:00,80.9,52.2,30.30,SW,225,10.0,20.0,37,0.00,,---,0.00,VWS V14.01,2013-05-08 21:30:00,
2013-05-08 16:40:00,81.1,52.4,30.30,SSW,202,9.0,21.0,37,0.00,,---,0.00,VWS V14.01,2013-05-08 21:40:00,
2013-05-08 16:50:00,81.2,54.6,30.29,SSW,202,7.0,14.0,40,0.00,,---,0.00,VWS V14.01,2013-05-08 21:50:00,
2013-05-08 17:00:00,81.1,53.1,30.29,South,180,8.0,17.0,38,0.00,,---,0.00,VWS V14.01,2013-05-08 22:00:00,
2013-05-08 17:10:00,81.1,51.7,30.29,South,180,9.0,18.0,36,0.00,,---,0.00,VWS V14.01,2013-05-08 22:10:00,
2013-05-08 17:20:00,81.1,51.7,30.29,SSW,202,7.0,16.0,36,0.00,,---,0.00,VWS V14.01,2013-05-08 22:20:00,
2013-05-08 17:30:00,81.4,52.7,30.28,SSE,158,8.0,16.0,37,0.00,,---,0.00,VWS V14.01,2013-05-08 22:30:00,
2013-05-08 17:40:00,81.2,51.7,30.28,South,180,9.0,16.0,36,0.00,,---,0.00,VWS V14.01,2013-05-08 22:40:00,
2013-05-08 17:50:00,81.6,53.6,30.28,South,180,7.0,15.0,38,0.00,,---,0.00,VWS V14.01,2013-05-08 22:50:00,
2013-05-08 18:00:00,79.8,53.4,30.27,South,180,8.0,17.0,40,0.00,,---,0.00,VWS V14.01,2013-05-08 23:00:00,
2013-05-08 18:10:00,79.2,54.8,30.27,SSW,202,8.0,17.0,43,0.00,,---,0.00,VWS V14.01,2013-05-08 23:10:00,
2013-05-08 18:20:00,79.0,54.0,30.27,South,180,9.0,16.0,42,0.00,,---,0.00,VWS V14.01,2013-05-08 23:20:00,
2013-05-08 18:30:00,79.0,54.6,30.27,South,180,6.0,13.0,43,0.00,,---,0.00,VWS V14.01,2013-05-08 23:30:00,
2013-05-08 18:40:00,78.6,54.9,30.27,South,180,6.0,13.0,44,0.00,,---,0.00,VWS V14.01,2013-05-08 23:40:00,
2013-05-08 18:50:00,77.4,53.8,30.28,SSW,202,8.0,17.0,44,0.00,,---,0.00,VWS V14.01,2013-05-08 23:50:00,
2013-05-08 19:00:00,77.0,54.1,30.27,SSW,202,8.0,15.0,45,0.00,,---,0.00,VWS V14.01,2013-05-09 00:00:00,
2013-05-08 19:10:00,76.3,54.0,30.27,SSW,202,8.0,20.0,46,0.00,,---,0.00,VWS V14.01,2013-05-09 00:10:00,
2013-05-08 19:20:00,75.8,54.7,30.28,South,180,6.0,14.0,48,0.00,,---,0.00,VWS V14.01,2013-05-09 00:20:00,
2013-05-08 19:30:00,75.4,54.9,30.27,SSW,202,6.0,14.0,49,0.00,,---,0.00,VWS V14.01,2013-05-09 00:30:00,
2013-05-08 19:40:00,75.4,55.5,30.27,South,180,4.0,10.0,50,0.00,,---,0.00,VWS V14.01,2013-05-09 00:40:00,
2013-05-08 19:50:00,75.1,55.8,30.27,South,180,5.0,11.0,51,0.00,,---,0.00,VWS V14.01,2013-05-09 00:50:00,
2013-05-08 20:00:00,74.6,55.8,30.26,South,180,6.0,12.0,52,0.00,,---,0.00,VWS V14.01,2013-05-09 01:00:00,
2013-05-08 20:10:00,74.2,55.5,30.26,South,180,5.0,11.0,52,0.00,,---,0.00,VWS V14.01,2013-05-09 01:10:00,
2013-05-08 20:20:00,73.9,55.7,30.25,South,180,3.0,12.0,53,0.00,,---,0.00,VWS V14.01,2013-05-09 01:20:00,
2013-05-08 20:30:00,73.3,55.7,30.25,South,180,1.0,5.0,54,0.00,,---,0.00,VWS V14.01,2013-05-09 01:30:00,
2013-05-08 20:40:00,72.8,55.7,30.25,South,180,1.0,5.0,55,0.00,,---,0.00,VWS V14.01,2013-05-09 01:40:00,
2013-05-08 20:50:00,72.1,55.6,30.26,South,180,2.0,5.0,56,0.00,,---,0.00,VWS V14.01,2013-05-09 01:50:00,
2013-05-08 21:00:00,74.6,55.8,30.26,South,180,6.0,12.0,52,0.00,,---,0.00,VWS V14.01,2013-05-09 02:00:00,
2013-05-08 21:04:00,71.5,56.0,30.26,SSE,162,3.0,3.0,58,0.00,,---,0.00,VWS V14.01,2013-05-09 02:04:00,
2013-05-08 21:09:00,71.1,55.6,30.26,SSE,153,3.0,5.0,58,0.00,,---,0.00,VWS V14.01,2013-05-09 02:09:00,
2013-05-08 21:10:00,71.1,55.6,30.26,SSE,153,0.0,5.0,58,0.00,,---,0.00,VWS V14.01,2013-05-09 02:10:00,
2013-05-08 21:14:00,71.1,55.6,30.24,SSE,153,0.0,0.0,58,0.00,,---,0.00,VWS V14.01,2013-05-09 02:14:00,
2013-05-08 21:19:00,70.8,55.8,30.24,SSE,158,0.0,2.0,59,0.00,,---,0.00,VWS V14.01,2013-05-09 02:19:00,
2013-05-08 21:20:00,70.8,55.8,30.24,SSE,158,1.0,4.0,59,0.00,,---,0.00,VWS V14.01,2013-05-09 02:20:00,
2013-05-08 21:24:00,70.4,55.4,30.24,SSE,158,1.0,3.0,59,0.00,,---,0.00,VWS V14.01,2013-05-09 02:24:00,
2013-05-08 21:29:00,70.3,55.8,30.25,SSE,158,3.0,3.0,60,0.00,,---,0.00,VWS V14.01,2013-05-09 02:29:00,
2013-05-08 21:30:00,70.3,55.8,30.25,SSE,158,3.0,3.0,60,0.00,,---,0.00,VWS V14.01,2013-05-09 02:30:00,
2013-05-08 21:34:00,70.1,55.6,30.25,SSE,158,2.0,4.0,60,0.00,,---,0.00,VWS V14.01,2013-05-09 02:34:00,
2013-05-08 21:39:00,70.1,55.6,30.25,South,178,2.0,5.0,60,0.00,,---,0.00,VWS V14.01,2013-05-09 02:39:00,
2013-05-08 21:40:00,70.1,55.6,30.25,South,178,0.0,5.0,60,0.00,,---,0.00,VWS V14.01,2013-05-09 02:40:00,
2013-05-08 21:44:00,69.9,55.4,30.26,South,178,5.0,5.0,60,0.00,,---,0.00,VWS V14.01,2013-05-09 02:44:00,
2013-05-08 21:49:00,69.9,55.8,30.26,South,178,1.0,5.0,61,0.00,,---,0.00,VWS V14.01,2013-05-09 02:49:00,
2013-05-08 21:50:00,69.9,55.8,30.26,South,178,1.0,5.0,61,0.00,,---,0.00,VWS V14.01,2013-05-09 02:50:00,
2013-05-08 21:54:00,69.8,55.8,30.26,South,187,3.0,5.0,61,0.00,,---,0.00,VWS V14.01,2013-05-09 02:54:00,
2013-05-08 21:59:00,69.8,55.8,30.26,South,187,2.0,5.0,61,0.00,,---,0.00,VWS V14.01,2013-05-09 02:59:00,
2013-05-08 22:00:00,69.8,55.8,30.26,South,187,0.0,5.0,61,0.00,,---,0.00,VWS V14.01,2013-05-09 03:00:00,
2013-05-08 22:04:00,69.6,55.6,30.26,South,187,2.0,4.0,61,0.00,,---,0.00,VWS V14.01,2013-05-09 03:04:00,
2013-05-08 22:09:00,69.6,55.6,30.26,South,187,2.0,4.0,61,0.00,,---,0.00,VWS V14.01,2013-05-09 03:09:00,
2013-05-08 22:10:00,69.4,55.4,30.26,South,187,2.0,4.0,61,0.00,,---,0.00,VWS V14.01,2013-05-09 03:10:00,
2013-05-08 22:14:00,69.4,55.8,30.27,SW,217,2.0,4.0,62,0.00,,---,0.00,VWS V14.01,2013-05-09 03:14:00,
2013-05-08 22:19:00,69.4,55.8,30.27,SSW,206,3.0,9.0,62,0.00,,---,0.00,VWS V14.01,2013-05-09 03:19:00,
2013-05-08 22:20:00,69.4,55.8,30.27,SSW,208,2.0,9.0,62,0.00,,---,0.00,VWS V14.01,2013-05-09 03:20:00,
2013-05-08 22:24:00,69.3,56.2,30.27,SSW,208,3.0,6.0,63,0.00,,---,0.00,VWS V14.01,2013-05-09 03:24:00,
2013-05-08 22:29:00,69.3,56.2,30.27,SSW,208,2.0,6.0,63,0.00,,---,0.00,VWS V14.01,2013-05-09 03:29:00,
2013-05-08 22:30:00,69.3,56.2,30.27,SSW,208,1.0,6.0,63,0.00,,---,0.00,VWS V14.01,2013-05-09 03:30:00,
2013-05-08 22:34:00,69.1,56.0,30.27,SSW,208,0.0,3.0,63,0.00,,---,0.00,VWS V14.01,2013-05-09 03:34:00,
2013-05-08 22:39:00,69.1,56.0,30.27,SSW,208,0.0,3.0,63,0.00,,---,0.00,VWS V14.01,2013-05-09 03:39:00,
2013-05-08 22:40:00,69.1,56.0,30.27,SSW,208,0.0,3.0,63,0.00,,---,0.00,VWS V14.01,2013-05-09 03:40:00,
2013-05-08 22:44:00,69.1,56.0,30.27,SSW,208,0.0,0.0,63,0.00,,---,0.00,VWS V14.01,2013-05-09 03:44:00,
2013-05-08 22:49:00,68.9,55.8,30.28,SSW,208,0.0,0.0,63,0.00,,---,0.00,VWS V14.01,2013-05-09 03:49:00,
2013-05-08 22:50:00,68.9,55.8,30.28,SSW,208,0.0,0.0,63,0.00,,---,0.00,VWS V14.01,2013-05-09 03:50:00,
2013-05-08 22:54:00,68.8,55.7,30.28,SSW,208,0.0,0.0,63,0.00,,---,0.00,VWS V14.01,2013-05-09 03:54:00,
2013-05-08 22:59:00,68.6,55.5,30.28,SSW,208,0.0,0.0,63,0.00,,---,0.00,VWS V14.01,2013-05-09 03:59:00,
2013-05-08 23:00:00,68.6,56.0,30.28,SSW,208,0.0,0.0,64,0.00,,---,0.00,VWS V14.01,2013-05-09 04:00:00,
2013-05-08 23:01:00,68.6,56.0,30.28,SSW,208,0.0,0.0,64,0.00,,---,0.00,VWS V14.01,2013-05-09 04:01:00,
2013-05-08 23:02:00,68.4,55.8,30.28,SSW,208,0.0,0.0,64,0.00,,---,0.00,VWS V14.01,2013-05-09 04:02:00,
2013-05-08 23:07:00,68.3,55.7,30.28,SSW,208,0.0,0.0,64,0.00,,---,0.00,VWS V14.01,2013-05-09 04:07:00,
2013-05-08 23:10:00,68.1,55.9,30.28,SSW,208,0.0,0.0,65,0.00,,---,0.00,VWS V14.01,2013-05-09 04:10:00,
2013-05-08 23:12:00,67.9,55.7,30.28,SSW,208,0.0,0.0,65,0.00,,---,0.00,VWS V14.01,2013-05-09 04:12:00,
2013-05-08 23:17:00,67.6,55.8,30.28,SSW,208,0.0,0.0,66,0.00,,---,0.00,VWS V14.01,2013-05-09 04:17:00,
2013-05-08 23:20:00,67.4,56.1,30.28,SSW,208,0.0,0.0,67,0.00,,---,0.00,VWS V14.01,2013-05-09 04:20:00,
2013-05-08 23:22:00,67.4,56.1,30.28,SSW,208,0.0,0.0,67,0.00,,---,0.00,VWS V14.01,2013-05-09 04:22:00,
2013-05-08 23:27:00,67.1,56.6,30.28,SSW,208,0.0,1.0,69,0.00,,---,0.00,VWS V14.01,2013-05-09 04:27:00,
2013-05-08 23:30:00,66.9,56.4,30.29,SSW,208,0.0,1.0,69,0.00,,---,0.00,VWS V14.01,2013-05-09 04:30:00,
2013-05-08 23:32:00,66.9,56.4,30.29,SSW,208,0.0,1.0,69,0.00,,---,0.00,VWS V14.01,2013-05-09 04:32:00,
2013-05-08 23:37:00,66.6,56.5,30.29,SSW,208,0.0,2.0,70,0.00,,---,0.00,VWS V14.01,2013-05-09 04:37:00,
2013-05-08 23:40:00,66.4,55.9,30.29,SSW,208,0.0,2.0,69,0.00,,---,0.00,VWS V14.01,2013-05-09 04:40:00,
2013-05-08 23:42:00,66.4,55.9,30.29,SSW,208,0.0,0.0,69,0.00,,---,0.00,VWS V14.01,2013-05-09 04:42:00,
2013-05-08 23:47:00,66.3,55.8,30.30,SSW,208,0.0,0.0,69,0.00,,---,0.00,VWS V14.01,2013-05-09 04:47:00,
2013-05-08 23:50:00,66.3,56.2,30.30,SSW,208,0.0,0.0,70,0.00,,---,0.00,VWS V14.01,2013-05-09 04:50:00,
2013-05-08 23:52:00,66.3,56.2,30.30,SSW,208,0.0,0.0,70,0.00,,---,0.00,VWS V14.01,2013-05-09 04:52:00,
2013-05-08 23:57:00,66.1,56.0,30.30,SSW,208,0.0,0.0,70,0.00,,---,0.00,VWS V14.01,2013-05-09 04:57:00,